Time;durP1;ratioP1;P1;durP2;ratioP2;P2;SDS_P1;SDS_P2;PMS_P1;PMS_P2;Temp;Humidity;BMP_temperature;BMP_pressure;BME280_temperature;BME280_humidity;BME280_pressure;Samples;Min_cycle;Max_cycle;Signal;HPM_P1;HPM_P2
2024/03/17 00:02:15;;;;;;;1.93;1.37;;;22.90;61.20;;;;;;5098080;28;20223;-90
2024/03/17 00:04:42;;;;;;;2.13;1.50;;;22.90;61.30;;;;;;5097788;28;20443;-91
2024/03/17 00:07:09;;;;;;;1.90;1.33;;;22.90;61.30;;;;;;5097777;28;20197;-91
2024/03/17 00:09:36;;;;;;;2.43;1.80;;;22.90;61.30;;;;;;5097211;28;20531;-90
2024/03/17 00:12:02;;;;;;;2.93;1.43;;;23.00;61.30;;;;;;5097477;28;20443;-91
2024/03/17 00:15:15;;;;;;;3.57;1.50;;;22.90;61.30;;;;;;5100812;28;20444;-91
2024/03/17 00:17:41;;;;;;;2.93;1.40;;;22.90;61.20;;;;;;5100259;28;20450;-92
2024/03/17 00:20:18;;;;;;;2.57;1.30;;;22.90;62.00;;;;;;5100781;28;20444;-91
2024/03/17 00:22:48;;;;;;;3.10;1.47;;;22.90;61.00;;;;;;5100185;28;20221;-89
2024/03/17 00:25:17;;;;;;;2.00;1.57;;;22.90;61.10;;;;;;5100579;28;20443;-90
2024/03/17 00:27:44;;;;;;;2.67;1.67;;;22.80;61.00;;;;;;5099733;28;20459;-90
2024/03/17 00:30:15;;;;;;;5.40;1.60;;;22.80;61.90;;;;;;5098858;28;20930;-90
2024/03/17 00:32:41;;;;;;;3.30;2.00;;;22.80;60.90;;;;;;5100089;28;20447;-92
2024/03/17 00:35:13;;;;;;;2.40;1.60;;;22.80;60.80;;;;;;5088032;28;20480;-91
2024/03/17 00:37:40;;;;;;;2.00;1.20;;;22.80;60.90;;;;;;5079253;28;20437;-92
2024/03/17 00:40:09;;;;;;;1.90;1.27;;;22.80;60.90;;;;;;5075607;28;20539;-92
2024/03/17 00:42:35;;;;;;;2.20;1.40;;;22.80;60.80;;;;;;5073137;28;20468;-91
2024/03/17 00:45:02;;;;;;;3.13;1.63;;;22.80;60.80;;;;;;5057346;28;20452;-90
2024/03/17 00:47:29;;;;;;;2.67;1.80;;;22.80;60.80;;;;;;5054904;28;20834;-90
2024/03/17 00:49:55;;;;;;;2.67;1.53;;;22.80;60.80;;;;;;5054175;28;20446;-91
2024/03/17 00:52:21;;;;;;;2.70;1.47;;;22.80;60.70;;;;;;5055772;28;20456;-89
2024/03/17 00:54:47;;;;;;;2.90;1.63;;;22.80;60.70;;;;;;5054907;28;20198;-89
2024/03/17 00:57:16;;;;;;;2.20;1.40;;;22.80;60.60;;;;;;5055250;28;20565;-90
2024/03/17 00:59:43;;;;;;;2.90;1.60;;;22.90;60.80;;;;;;5054914;28;20446;-90
2024/03/17 01:02:09;;;;;;;2.93;1.37;;;22.90;60.70;;;;;;5055350;28;20481;-91
2024/03/17 01:04:35;;;;;;;3.20;1.67;;;22.80;60.60;;;;;;5054735;28;20449;-90
2024/03/17 01:07:02;;;;;;;2.10;1.43;;;22.80;60.60;;;;;;5055108;28;20528;-90
2024/03/17 01:09:28;;;;;;;2.00;1.57;;;22.70;60.50;;;;;;5055217;28;20471;-90
2024/03/17 01:11:55;;;;;;;3.30;1.40;;;22.80;61.40;;;;;;5055216;28;20532;-91
2024/03/17 01:14:23;;;;;;;2.00;1.60;;;22.80;60.60;;;;;;5055220;28;20198;-90
2024/03/17 01:16:51;;;;;;;2.40;1.40;;;22.80;60.50;;;;;;5055309;28;20441;-91
2024/03/17 01:19:18;;;;;;;2.20;1.40;;;22.80;60.50;;;;;;5054823;28;20524;-89
2024/03/17 01:21:44;;;;;;;2.27;1.30;;;22.80;60.40;;;;;;5054989;28;20499;-90
2024/03/17 01:24:10;;;;;;;2.60;1.50;;;22.80;60.40;;;;;;5054786;28;20437;-91
2024/03/17 01:26:36;;;;;;;2.73;1.90;;;22.80;61.30;;;;;;5054898;28;20302;-91
2024/03/17 01:29:03;;;;;;;2.20;1.67;;;22.80;60.30;;;;;;5054700;28;20901;-90
2024/03/17 01:31:30;;;;;;;2.20;1.63;;;22.80;60.40;;;;;;5055142;28;20195;-90
2024/03/17 01:33:58;;;;;;;2.47;1.60;;;22.70;60.20;;;;;;5055907;28;20499;-91
2024/03/17 01:36:24;;;;;;;1.80;1.40;;;22.80;60.30;;;;;;5075499;28;20765;-91
2024/03/17 01:38:51;;;;;;;2.67;1.77;;;22.80;60.30;;;;;;5074651;28;20437;-90
2024/03/17 01:41:21;;;;;;;2.27;1.57;;;22.80;60.30;;;;;;5075100;28;20530;-91
2024/03/17 01:43:46;;;;;;;2.70;1.80;;;22.80;60.20;;;;;;5074643;28;20923;-90
2024/03/17 01:46:14;;;;;;;3.20;1.53;;;22.70;60.20;;;;;;5074755;28;20540;-92
2024/03/17 01:48:42;;;;;;;2.23;1.50;;;22.80;60.20;;;;;;5074802;28;20633;-92
2024/03/17 01:51:11;;;;;;;2.77;1.30;;;22.80;60.20;;;;;;5074706;28;20436;-91
2024/03/17 01:53:39;;;;;;;2.30;1.60;;;22.80;60.20;;;;;;5074539;28;20940;-92
2024/03/17 01:56:06;;;;;;;2.20;1.30;;;22.80;60.20;;;;;;5074640;28;20471;-90
2024/03/17 01:58:32;;;;;;;2.30;1.80;;;22.70;60.00;;;;;;5074519;28;20437;-91
2024/03/17 02:00:59;;;;;;;2.50;1.50;;;22.70;60.00;;;;;;5074768;28;20448;-92
2024/03/17 02:03:25;;;;;;;2.30;1.30;;;22.70;60.00;;;;;;5077699;28;20489;-91
2024/03/17 02:05:53;;;;;;;2.63;1.40;;;22.70;60.00;;;;;;5078556;28;20452;-91
2024/03/17 02:08:20;;;;;;;2.70;1.50;;;22.80;60.10;;;;;;5078871;28;20285;-92
2024/03/17 02:10:52;;;;;;;1.90;1.27;;;22.80;60.10;;;;;;5078762;28;20436;-91
2024/03/17 02:13:18;;;;;;;2.50;1.57;;;22.70;60.00;;;;;;5078810;28;20455;-91
2024/03/17 02:15:45;;;;;;;3.70;1.47;;;22.70;60.00;;;;;;5078457;28;20453;-92
2024/03/17 02:18:11;;;;;;;2.50;1.60;;;22.70;59.90;;;;;;5078977;28;20440;-92
2024/03/17 02:20:58;;;;;;;2.40;1.60;;;22.70;59.90;;;;;;5078406;28;20448;-91
2024/03/17 02:23:26;;;;;;;2.50;1.60;;;22.70;60.00;;;;;;5078446;28;20677;-89
2024/03/17 02:25:53;;;;;;;2.30;1.70;;;22.80;60.00;;;;;;5079697;28;20472;-91
2024/03/17 02:28:19;;;;;;;2.20;1.30;;;22.80;60.00;;;;;;5093925;28;20939;-90
2024/03/17 02:30:45;;;;;;;3.17;1.40;;;22.70;60.70;;;;;;5095032;28;20436;-90
2024/03/17 02:33:11;;;;;;;1.83;1.33;;;22.80;60.00;;;;;;5094780;28;20190;-90
2024/03/17 02:35:38;;;;;;;2.40;1.50;;;22.70;59.80;;;;;;5078660;28;20507;-90
2024/03/17 02:38:04;;;;;;;1.90;1.23;;;22.80;60.00;;;;;;5078744;28;20198;-90
2024/03/17 02:40:32;;;;;;;1.83;1.27;;;22.70;59.90;;;;;;5079220;28;20443;-91
2024/03/17 02:42:59;;;;;;;2.10;1.30;;;22.60;59.80;;;;;;5078381;28;20502;-90
2024/03/17 02:45:26;;;;;;;1.80;1.40;;;22.70;59.90;;;;;;5078505;28;20535;-90
2024/03/17 02:47:53;;;;;;;1.70;1.40;;;22.70;59.90;;;;;;5078269;28;20457;-88
2024/03/17 02:50:19;;;;;;;2.10;1.40;;;22.70;59.90;;;;;;5078473;28;20442;-90
2024/03/17 02:52:46;;;;;;;1.80;1.40;;;22.60;59.80;;;;;;5078214;28;20443;-91
2024/03/17 02:55:13;;;;;;;2.63;1.40;;;22.70;59.90;;;;;;5078511;28;20440;-89
2024/03/17 02:57:41;;;;;;;2.33;1.73;;;22.60;59.80;;;;;;5079341;28;20464;-91
2024/03/17 03:00:12;;;;;;;1.83;1.40;;;22.60;59.80;;;;;;5101316;28;20475;-89
2024/03/17 03:02:40;;;;;;;2.00;1.60;;;22.70;59.90;;;;;;5101119;28;20444;-89
2024/03/17 03:05:07;;;;;;;3.63;1.97;;;22.60;59.80;;;;;;5080817;28;20447;-92
2024/03/17 03:07:34;;;;;;;3.77;1.63;;;22.60;59.80;;;;;;5077369;28;20922;-90
2024/03/17 03:10:01;;;;;;;2.10;1.37;;;22.60;59.80;;;;;;5077078;28;20447;-92
2024/03/17 03:12:27;;;;;;;2.10;1.13;;;22.60;59.80;;;;;;5076407;28;20436;-92
2024/03/17 03:14:56;;;;;;;2.13;1.50;;;22.60;59.80;;;;;;5077770;28;20441;-92
2024/03/17 03:17:23;;;;;;;2.40;1.53;;;22.60;59.80;;;;;;5076955;28;20467;-92
2024/03/17 03:19:50;;;;;;;1.97;1.17;;;22.60;59.80;;;;;;5077065;28;20540;-91
2024/03/17 03:22:17;;;;;;;2.00;1.40;;;22.60;59.80;;;;;;5077278;28;20472;-92
2024/03/17 03:24:44;;;;;;;2.17;1.60;;;22.70;59.80;;;;;;5076982;28;20445;-90
2024/03/17 03:27:11;;;;;;;2.00;1.13;;;22.70;59.90;;;;;;5076567;28;20467;-91
2024/03/17 03:29:38;;;;;;;2.70;1.50;;;22.60;59.80;;;;;;5076905;28;20432;-89
2024/03/17 03:32:07;;;;;;;1.90;1.20;;;22.60;59.80;;;;;;5076697;28;20437;-92
2024/03/17 03:34:34;;;;;;;2.07;1.40;;;22.60;59.80;;;;;;5076776;28;20468;-90
2024/03/17 03:37:01;;;;;;;2.70;1.63;;;22.60;59.80;;;;;;5078576;28;20849;-90
2024/03/17 03:39:31;;;;;;;2.60;1.47;;;22.60;59.80;;;;;;5076827;28;20444;-91
2024/03/17 03:41:58;;;;;;;2.20;1.37;;;22.70;59.80;;;;;;5076854;28;20480;-91
2024/03/17 03:44:25;;;;;;;1.83;1.23;;;22.60;59.70;;;;;;5076706;28;20550;-91
2024/03/17 03:46:56;;;;;;;2.40;1.70;;;22.60;59.80;;;;;;5076953;28;20789;-90
2024/03/17 03:49:24;;;;;;;2.20;1.50;;;22.60;59.80;;;;;;5077023;28;20931;-92
2024/03/17 03:51:51;;;;;;;2.13;1.37;;;22.60;59.80;;;;;;5076345;28;20436;-91
2024/03/17 03:54:18;;;;;;;1.90;1.50;;;22.50;59.70;;;;;;5076402;28;20441;-90
2024/03/17 03:56:45;;;;;;;2.80;1.70;;;22.50;59.70;;;;;;5076460;28;20473;-91
2024/03/17 03:59:12;;;;;;;2.10;1.60;;;22.60;59.70;;;;;;5076279;28;20445;-90
2024/03/17 04:01:39;;;;;;;3.37;2.00;;;22.60;59.70;;;;;;5076686;28;20528;-90
2024/03/17 04:04:06;;;;;;;2.00;1.50;;;22.60;59.70;;;;;;5076641;28;20488;-93
2024/03/17 04:06:37;;;;;;;2.57;1.60;;;22.60;59.70;;;;;;5076200;28;20447;-91
2024/03/17 04:09:05;;;;;;;1.90;1.30;;;22.50;59.70;;;;;;5075737;28;20450;-90
2024/03/17 04:11:33;;;;;;;2.70;1.80;;;22.50;59.70;;;;;;5076130;28;20451;-89
2024/03/17 04:14:00;;;;;;;2.10;1.30;;;22.50;59.70;;;;;;5076034;28;20444;-90
2024/03/17 04:16:27;;;;;;;2.00;1.33;;;22.50;59.70;;;;;;5076005;28;20498;-91
2024/03/17 04:18:54;;;;;;;2.00;1.47;;;22.50;59.60;;;;;;5075977;28;20442;-90
2024/03/17 04:21:21;;;;;;;2.30;1.70;;;22.50;59.60;;;;;;5075952;28;20441;-92
2024/03/17 04:23:49;;;;;;;1.80;1.43;;;22.50;59.60;;;;;;5075701;28;20487;-92
2024/03/17 04:26:16;;;;;;;3.80;1.70;;;22.50;59.70;;;;;;5075057;28;20464;-92
2024/03/17 04:28:43;;;;;;;2.63;1.57;;;22.50;59.60;;;;;;5075607;28;20931;-91
2024/03/17 04:31:11;;;;;;;4.47;1.60;;;22.50;59.60;;;;;;5076296;28;20795;-91
2024/03/17 04:33:38;;;;;;;2.57;1.60;;;22.60;59.70;;;;;;5075260;28;20436;-93
2024/03/17 04:36:06;;;;;;;1.80;1.20;;;22.50;59.60;;;;;;5075012;28;20500;-91
2024/03/17 04:38:32;;;;;;;3.30;1.80;;;22.50;59.50;;;;;;5075368;28;20443;-90
2024/03/17 04:41:05;;;;;;;1.90;1.37;;;22.50;59.60;;;;;;5075122;28;20440;-91
2024/03/17 04:43:33;;;;;;;2.10;1.30;;;22.50;59.60;;;;;;5075273;28;20494;-91
2024/03/17 04:46:05;;;;;;;2.30;1.50;;;22.50;59.60;;;;;;5073690;28;20442;-91
2024/03/17 04:48:32;;;;;;;2.50;1.70;;;22.50;59.60;;;;;;5074156;28;20453;-89
2024/03/17 04:51:00;;;;;;;3.20;1.80;;;22.60;59.60;;;;;;5075167;28;20443;-90
2024/03/17 04:53:26;;;;;;;2.67;1.90;;;22.60;59.60;;;;;;5074909;28;20452;-90
2024/03/17 04:56:08;;;;;;;2.97;1.80;;;22.60;59.60;;;;;;5074616;28;20469;-90
2024/03/17 04:58:35;;;;;;;2.23;1.40;;;22.50;59.60;;;;;;5075299;28;20456;-91
2024/03/17 05:01:06;;;;;;;2.17;1.50;;;22.50;59.60;;;;;;5075250;28;20424;-93
2024/03/17 05:03:33;;;;;;;2.83;1.90;;;22.50;59.60;;;;;;5074904;28;20491;-90
2024/03/17 05:06:03;;;;;;;2.00;1.30;;;22.50;59.60;;;;;;5074584;28;20442;-92
2024/03/17 05:08:31;;;;;;;2.03;1.67;;;22.60;59.60;;;;;;5075071;28;20942;-90
2024/03/17 05:10:58;;;;;;;3.40;1.40;;;22.50;59.50;;;;;;5074931;28;20466;-92
2024/03/17 05:13:27;;;;;;;4.27;1.67;;;22.50;59.50;;;;;;5074823;28;20452;-90
2024/03/17 05:15:54;;;;;;;2.43;1.70;;;22.50;59.50;;;;;;5074965;28;20495;-90
2024/03/17 05:18:22;;;;;;;2.27;1.63;;;22.50;59.50;;;;;;5074900;28;20443;-92
2024/03/17 05:20:57;;;;;;;2.17;1.60;;;22.50;59.60;;;;;;5074768;28;20468;-92
2024/03/17 05:23:24;;;;;;;2.60;1.90;;;22.50;59.60;;;;;;5074770;28;20910;-92
2024/03/17 05:25:52;;;;;;;2.20;1.20;;;22.50;59.50;;;;;;5066801;28;20982;-92
2024/03/17 05:28:19;;;;;;;3.13;2.27;;;22.50;59.60;;;;;;5074955;28;20447;-90
2024/03/17 05:30:48;;;;;;;4.13;2.10;;;22.50;59.50;;;;;;5080652;28;20436;-92
2024/03/17 05:33:15;;;;;;;2.30;1.30;;;22.50;59.60;;;;;;5074968;28;20532;-90
2024/03/17 05:35:42;;;;;;;2.77;2.00;;;22.50;59.60;;;;;;5074408;28;20473;-92
2024/03/17 05:38:10;;;;;;;3.70;1.70;;;22.40;59.50;;;;;;5074775;28;20539;-91
2024/03/17 05:40:40;;;;;;;2.27;1.37;;;22.40;59.50;;;;;;5075156;28;20444;-89
2024/03/17 05:43:07;;;;;;;2.07;1.60;;;22.50;59.50;;;;;;5074666;28;20483;-92
2024/03/17 05:45:34;;;;;;;2.40;1.80;;;22.50;59.60;;;;;;5074960;28;20440;-92
2024/03/17 05:48:05;;;;;;;2.53;2.20;;;22.40;59.50;;;;;;5074524;28;20506;-91
2024/03/17 05:50:31;;;;;;;3.07;1.63;;;22.40;59.40;;;;;;5075735;28;20453;-92
2024/03/17 05:52:58;;;;;;;1.97;1.63;;;22.50;59.60;;;;;;5076786;28;20454;-92
2024/03/17 05:55:25;;;;;;;2.00;1.67;;;22.40;59.50;;;;;;5076587;28;20437;-89
2024/03/17 05:57:52;;;;;;;2.07;1.40;;;22.40;59.60;;;;;;5076538;28;20447;-92
2024/03/17 06:00:19;;;;;;;2.20;1.40;;;22.50;59.60;;;;;;5074891;28;20490;-91
2024/03/17 06:02:47;;;;;;;2.00;1.57;;;22.40;60.20;;;;;;5073951;28;20476;-89
2024/03/17 06:05:15;;;;;;;2.10;1.60;;;22.40;59.60;;;;;;5074838;28;20840;-92
2024/03/17 06:07:42;;;;;;;2.30;1.70;;;22.40;59.50;;;;;;5075986;28;20927;-89
2024/03/17 06:10:09;;;;;;;3.90;1.50;;;22.40;59.60;;;;;;5085918;28;20437;-90
2024/03/17 06:12:36;;;;;;;2.10;1.53;;;22.40;59.50;;;;;;5251763;22;20544;-88
2024/03/17 06:15:03;;;;;;;2.37;1.70;;;22.40;60.20;;;;;;5156939;28;20458;-90
2024/03/17 06:17:30;;;;;;;1.90;1.57;;;22.40;59.60;;;;;;5138204;28;20434;-91
2024/03/17 06:19:58;;;;;;;2.70;1.50;;;22.40;59.60;;;;;;5135944;28;20498;-91
2024/03/17 06:22:26;;;;;;;2.13;1.53;;;22.50;59.70;;;;;;5138360;28;20434;-89
2024/03/17 06:24:52;;;;;;;2.83;1.93;;;22.40;59.70;;;;;;5136580;28;20481;-91
2024/03/17 06:27:19;;;;;;;2.20;1.40;;;22.50;59.70;;;;;;5136936;28;20465;-91
2024/03/17 06:29:46;;;;;;;2.30;1.70;;;22.40;59.70;;;;;;5136038;28;20437;-89
2024/03/17 06:32:13;;;;;;;2.87;1.50;;;22.40;59.70;;;;;;5136184;28;20434;-91
2024/03/17 06:34:40;;;;;;;1.80;1.40;;;22.40;59.80;;;;;;5135694;28;20445;-91
2024/03/17 06:37:07;;;;;;;2.23;1.60;;;22.40;59.80;;;;;;5135853;28;20804;-92
2024/03/17 06:39:35;;;;;;;2.17;1.50;;;22.40;59.80;;;;;;5136059;28;20434;-91
2024/03/17 06:42:03;;;;;;;2.00;1.57;;;22.40;59.80;;;;;;5136598;28;20799;-91
2024/03/17 06:44:33;;;;;;;2.10;1.37;;;22.40;59.90;;;;;;5136544;28;20867;-91
2024/03/17 06:47:00;;;;;;;1.87;1.60;;;22.40;59.90;;;;;;5140945;27;20462;-89
2024/03/17 06:49:27;;;;;;;1.83;1.30;;;22.40;60.60;;;;;;5139239;27;20442;-90
2024/03/17 06:51:54;;;;;;;2.73;1.50;;;22.50;60.00;;;;;;5139298;27;20775;-90
2024/03/17 06:54:21;;;;;;;2.53;1.60;;;22.40;59.80;;;;;;5139351;27;20430;-92
2024/03/17 06:56:49;;;;;;;2.43;1.73;;;22.50;59.90;;;;;;5139406;27;20449;-91
2024/03/17 06:59:16;;;;;;;2.80;1.90;;;22.50;59.90;;;;;;5139449;27;20434;-91
2024/03/17 07:01:42;;;;;;;2.33;1.47;;;22.50;59.90;;;;;;5139488;27;20430;-91
2024/03/17 07:04:11;;;;;;;2.90;1.60;;;22.50;59.90;;;;;;5139618;27;20481;-89
2024/03/17 07:06:37;;;;;;;1.80;1.20;;;22.50;59.90;;;;;;5138977;27;20440;-90
2024/03/17 07:09:05;;;;;;;1.90;1.20;;;22.50;59.90;;;;;;5151631;27;20444;-89
2024/03/17 07:11:32;;;;;;;1.90;1.30;;;22.50;59.80;;;;;;5159697;27;20445;-89
2024/03/17 07:14:00;;;;;;;2.60;1.67;;;22.50;59.80;;;;;;5162142;27;20493;-88
2024/03/17 07:16:27;;;;;;;1.90;1.70;;;22.50;59.90;;;;;;5150411;27;20533;-90
2024/03/17 07:18:53;;;;;;;2.27;1.30;;;22.50;59.80;;;;;;5144490;27;20442;-89
2024/03/17 07:21:20;;;;;;;2.17;1.50;;;22.50;59.80;;;;;;5139439;27;20433;-89
2024/03/17 07:23:47;;;;;;;2.03;1.50;;;22.50;59.90;;;;;;5138293;27;20481;-92
2024/03/17 07:26:14;;;;;;;1.90;1.40;;;22.50;59.90;;;;;;5138680;27;20462;-92
2024/03/17 07:28:41;;;;;;;1.70;1.37;;;22.50;59.90;;;;;;5138226;27;20441;-92
2024/03/17 07:31:10;;;;;;;1.70;1.17;;;22.60;59.90;;;;;;5138126;27;20801;-92
2024/03/17 07:33:37;;;;;;;2.17;1.20;;;22.50;60.60;;;;;;5138209;27;20789;-89
2024/03/17 07:36:05;;;;;;;1.97;1.10;;;22.50;59.90;;;;;;5138685;27;20936;-89
2024/03/17 07:38:35;;;;;;;2.63;1.60;;;22.50;59.90;;;;;;5139539;27;20792;-91
2024/03/17 07:41:03;;;;;;;1.80;1.20;;;22.50;59.90;;;;;;5138269;27;20446;-90
2024/03/17 07:43:33;;;;;;;1.80;1.10;;;22.50;59.90;;;;;;5138132;27;20466;-90
2024/03/17 07:46:01;;;;;;;2.67;1.40;;;22.50;59.90;;;;;;5137808;27;20463;-91
2024/03/17 07:48:29;;;;;;;2.40;1.70;;;22.60;59.90;;;;;;5137732;27;20434;-89
2024/03/17 07:50:57;;;;;;;2.10;1.30;;;22.60;59.90;;;;;;5137641;27;20438;-91
2024/03/17 07:53:26;;;;;;;1.80;1.30;;;22.60;59.90;;;;;;5138038;27;20445;-91
2024/03/17 07:56:00;;;;;;;1.97;1.27;;;22.60;60.70;;;;;;5137800;27;20817;-89
2024/03/17 07:58:27;;;;;;;2.10;1.37;;;22.60;59.90;;;;;;5137224;27;20434;-90
2024/03/17 08:00:59;;;;;;;2.00;1.20;;;22.60;59.90;;;;;;5137445;27;20433;-91
2024/03/17 08:03:26;;;;;;;1.70;1.03;;;22.60;59.90;;;;;;5137562;27;20474;-89
2024/03/17 08:05:54;;;;;;;1.90;1.10;;;22.60;59.90;;;;;;5137058;27;20446;-88
2024/03/17 08:08:21;;;;;;;1.90;1.00;;;22.60;59.90;;;;;;5136910;27;20799;-88
2024/03/17 08:10:49;;;;;;;2.90;1.70;;;22.70;60.00;;;;;;5136622;27;20446;-85
2024/03/17 08:13:15;;;;;;;2.00;1.20;;;22.70;60.00;;;;;;5135193;27;20450;-90
2024/03/17 08:15:42;;;;;;;1.97;1.50;;;22.60;59.90;;;;;;5136683;27;20450;-90
2024/03/17 08:18:11;;;;;;;1.90;1.40;;;22.60;60.10;;;;;;5137605;27;20438;-87
2024/03/17 08:20:39;;;;;;;1.80;1.23;;;22.60;60.20;;;;;;5136428;27;20442;-90
2024/03/17 08:23:07;;;;;;;1.70;1.27;;;22.60;60.00;;;;;;5136833;27;20448;-88
2024/03/17 08:25:34;;;;;;;1.70;1.00;;;22.60;60.20;;;;;;5137004;27;20523;-89
2024/03/17 08:28:01;;;;;;;3.33;1.50;;;22.60;60.30;;;;;;5136145;27;20943;-88
2024/03/17 08:30:28;;;;;;;2.80;1.60;;;22.60;60.40;;;;;;5135151;27;20434;-88
2024/03/17 08:32:55;;;;;;;3.47;1.70;;;22.70;60.70;;;;;;5157465;27;20432;-88
2024/03/17 08:35:22;;;;;;;1.63;1.27;;;22.70;60.90;;;;;;5157053;27;20445;-87
2024/03/17 08:37:50;;;;;;;2.43;1.60;;;22.60;61.00;;;;;;5157104;27;20540;-90
2024/03/17 08:40:18;;;;;;;4.93;1.30;;;22.70;61.20;;;;;;5156906;27;20471;-93
2024/03/17 08:42:45;;;;;;;11.43;1.87;;;22.60;61.40;;;;;;5157024;27;20433;-90
2024/03/17 08:45:13;;;;;;;2.67;1.20;;;22.70;61.50;;;;;;5157020;27;20486;-86
2024/03/17 08:47:40;;;;;;;5.30;2.10;;;22.70;61.60;;;;;;5156517;27;20476;-87
2024/03/17 08:50:08;;;;;;;2.20;1.30;;;22.70;61.80;;;;;;5156338;27;20444;-88
2024/03/17 08:52:35;;;;;;;3.17;1.33;;;22.70;62.00;;;;;;5156451;27;20448;-87
2024/03/17 08:55:03;;;;;;;2.10;1.47;;;22.70;62.20;;;;;;5156097;27;20447;-87
2024/03/17 08:57:32;;;;;;;1.97;1.40;;;22.80;62.40;;;;;;5156181;27;20456;-87
2024/03/17 08:59:59;;;;;;;2.63;1.50;;;22.70;62.30;;;;;;5155902;27;20448;-92
2024/03/17 09:02:25;;;;;;;2.17;1.23;;;22.70;62.30;;;;;;5156288;27;20437;-87
2024/03/17 09:04:52;;;;;;;4.13;1.37;;;22.80;62.40;;;;;;5156593;27;20559;-91
2024/03/17 09:07:19;;;;;;;2.43;1.40;;;22.70;62.30;;;;;;5156533;27;20950;-87
2024/03/17 09:09:48;;;;;;;2.80;1.30;;;22.80;62.50;;;;;;5156142;27;20442;-87
2024/03/17 09:12:14;;;;;;;2.33;1.50;;;22.80;62.50;;;;;;5156105;27;20456;-87
2024/03/17 09:14:43;;;;;;;3.50;1.20;;;22.90;62.60;;;;;;5156331;27;20437;-87
2024/03/17 09:17:10;;;;;;;2.73;1.30;;;22.90;62.70;;;;;;5157343;27;20440;-91
2024/03/17 09:19:36;;;;;;;8.83;1.30;;;23.00;62.80;;;;;;5156928;27;20440;-90
2024/03/17 09:22:04;;;;;;;2.70;1.63;;;22.90;62.80;;;;;;5156476;27;20451;-87
2024/03/17 09:24:31;;;;;;;8.03;1.70;;;23.00;62.70;;;;;;5159648;27;20532;-88
2024/03/17 09:26:57;;;;;;;5.60;1.70;;;23.00;63.40;;;;;;5180423;27;20447;-87
2024/03/17 09:29:24;;;;;;;4.33;1.50;;;23.00;62.40;;;;;;5180634;27;20476;-88
2024/03/17 09:31:52;;;;;;;9.80;2.60;;;23.00;62.50;;;;;;5159444;27;20462;-87
2024/03/17 09:34:19;;;;;;;8.00;2.00;;;23.00;62.70;;;;;;5155809;27;20931;-91
2024/03/17 09:36:47;;;;;;;9.47;1.77;;;23.10;62.90;;;;;;5157048;27;20445;-88
2024/03/17 09:39:14;;;;;;;5.33;2.23;;;23.10;62.90;;;;;;5155446;27;21030;-87
2024/03/17 09:41:42;;;;;;;11.43;2.17;;;23.10;63.10;;;;;;5155776;27;20441;-83
2024/03/17 09:44:14;;;;;;;12.60;2.17;;;23.10;63.30;;;;;;5155040;27;20473;-83
2024/03/17 09:46:40;;;;;;;5.43;1.80;;;23.10;63.20;;;;;;5155041;27;20432;-81
2024/03/17 09:49:16;;;;;;;5.10;2.03;;;23.10;63.10;;;;;;5155436;27;20432;-82
2024/03/17 09:51:43;;;;;;;3.80;1.97;;;23.10;62.80;;;;;;5155463;27;20493;-83
2024/03/17 09:54:18;;;;;;;6.30;1.50;;;23.10;62.90;;;;;;5154995;27;20433;-84
2024/03/17 09:56:45;;;;;;;2.30;1.47;;;23.10;62.50;;;;;;5155075;27;20441;-83
2024/03/17 09:59:12;;;;;;;7.00;1.73;;;23.10;62.40;;;;;;5155058;27;20433;-83
2024/03/17 10:01:39;;;;;;;4.97;1.53;;;23.10;62.20;;;;;;5155197;27;20464;-83
2024/03/17 10:04:08;;;;;;;5.90;1.50;;;23.20;62.10;;;;;;5154978;27;20477;-84
2024/03/17 10:06:46;;;;;;;3.43;1.57;;;23.20;62.00;;;;;;5155264;27;20463;-84
2024/03/17 10:09:20;;;;;;;2.67;1.13;;;23.20;62.00;;;;;;5155046;27;20420;-84
2024/03/17 10:11:47;;;;;;;4.27;1.50;;;23.20;62.00;;;;;;5154923;27;20466;-83
2024/03/17 10:14:17;;;;;;;2.43;1.23;;;23.30;61.90;;;;;;5155003;27;20425;-83
2024/03/17 10:16:45;;;;;;;6.50;1.60;;;23.30;61.80;;;;;;5154738;27;20437;-83
2024/03/17 10:19:13;;;;;;;4.67;1.80;;;23.30;62.00;;;;;;5154909;27;20468;-84
2024/03/17 10:21:42;;;;;;;2.53;1.20;;;23.30;62.30;;;;;;5154915;27;20510;-83
2024/03/17 10:24:10;;;;;;;3.30;1.33;;;23.30;62.40;;;;;;5157602;27;20479;-82
2024/03/17 10:26:46;;;;;;;3.60;1.20;;;23.30;62.50;;;;;;5158605;27;20457;-84
2024/03/17 10:29:24;;;;;;;2.73;1.40;;;23.30;62.50;;;;;;5158907;27;20797;-84
2024/03/17 10:31:51;;;;;;;3.50;1.60;;;23.30;62.70;;;;;;5158854;27;20429;-85
2024/03/17 10:34:19;;;;;;;19.50;1.43;;;23.20;62.50;;;;;;5158846;27;20432;-84
2024/03/17 10:36:48;;;;;;;9.33;1.47;;;23.20;62.60;;;;;;5158611;27;20500;-85
2024/03/17 10:39:35;;;;;;;3.97;1.60;;;23.20;62.70;;;;;;5159283;27;20436;-85
2024/03/17 10:42:03;;;;;;;7.63;1.33;;;23.20;62.70;;;;;;5158624;27;20437;-83
2024/03/17 10:44:31;;;;;;;4.53;1.73;;;23.20;62.80;;;;;;5146518;27;20830;-84
2024/03/17 10:46:58;;;;;;;6.10;1.57;;;23.20;62.80;;;;;;5156514;27;20449;-82
2024/03/17 10:49:30;;;;;;;3.73;1.53;;;23.20;62.90;;;;;;5158032;27;20441;-87
2024/03/17 10:52:02;;;;;;;7.90;1.70;;;23.20;63.00;;;;;;5157601;27;20519;-84
2024/03/17 10:54:29;;;;;;;2.53;1.27;;;23.20;63.00;;;;;;5157552;27;20452;-86
2024/03/17 10:56:58;;;;;;;4.03;2.33;;;23.20;62.90;;;;;;5157804;27;20506;-86
2024/03/17 10:59:38;;;;;;;3.70;1.23;;;23.20;62.80;;;;;;5157465;27;20943;-87
2024/03/17 11:02:19;;;;;;;7.50;1.47;;;23.20;62.90;;;;;;5158168;27;20433;-87
2024/03/17 11:04:46;;;;;;;7.23;1.10;;;23.20;63.80;;;;;;5157937;27;20993;-87
2024/03/17 11:07:18;;;;;;;5.87;1.53;;;23.20;63.70;;;;;;5157856;27;20459;-86
2024/03/17 11:09:47;;;;;;;14.17;1.50;;;23.20;62.80;;;;;;5157658;27;20421;-87
2024/03/17 11:12:42;;;;;;;4.17;1.60;;;23.30;62.80;;;;;;5158371;27;21324;-83
2024/03/17 11:15:39;;;;;;;6.23;1.87;;;23.30;62.90;;;;;;5160217;27;20448;-83
2024/03/17 11:18:36;;;;;;;1.80;1.10;;;23.30;62.70;;;;;;5160586;27;20439;-86
2024/03/17 11:21:10;;;;;;;3.87;1.57;;;23.30;62.60;;;;;;5054890;28;20434;-83
2024/03/17 11:23:39;;;;;;;3.40;1.23;;;23.30;62.70;;;;;;5140457;27;20500;-84
2024/03/17 11:26:08;;;;;;;3.63;1.30;;;23.40;62.80;;;;;;5159644;27;20555;-86
2024/03/17 11:28:47;;;;;;;2.20;1.40;;;23.40;62.90;;;;;;5158745;27;20433;-84
2024/03/17 11:31:35;;;;;;;4.73;1.57;;;23.40;63.00;;;;;;5157971;27;20516;-83
2024/03/17 11:34:04;;;;;;;4.70;1.30;;;23.40;63.10;;;;;;5157791;27;20437;-85
2024/03/17 11:36:39;;;;;;;6.10;1.13;;;23.40;63.20;;;;;;5157699;27;20428;-81
2024/03/17 11:39:14;;;;;;;2.77;1.30;;;23.40;63.30;;;;;;5157877;27;20432;-86
2024/03/17 11:41:42;;;;;;;2.50;1.50;;;23.40;63.20;;;;;;5158919;27;20783;-86
2024/03/17 11:44:15;;;;;;;3.40;1.27;;;23.40;63.30;;;;;;5157986;27;20425;-81
2024/03/17 11:46:43;;;;;;;7.67;1.23;;;23.40;63.30;;;;;;5157811;27;20831;-86
2024/03/17 11:49:20;;;;;;;10.43;1.73;;;23.40;63.30;;;;;;5157511;27;20832;-86
2024/03/17 11:51:48;;;;;;;2.53;1.10;;;23.40;63.30;;;;;;5157802;27;20432;-83
2024/03/17 11:54:18;;;;;;;2.63;1.03;;;23.40;63.20;;;;;;5157575;27;20433;-86
2024/03/17 11:56:47;;;;;;;2.87;1.33;;;23.40;63.20;;;;;;5157272;27;20468;-86
2024/03/17 11:59:12;;;;;;;3.50;1.30;;;23.50;63.30;;;;;;5157399;27;20432;-82
2024/03/17 12:01:41;;;;;;;4.20;1.90;;;23.40;63.10;;;;;;5156621;27;20481;-82
2024/03/17 12:04:07;;;;;;;1.90;1.20;;;23.60;63.40;;;;;;5157010;27;20198;-82
2024/03/17 12:06:34;;;;;;;2.27;1.43;;;23.50;63.10;;;;;;5156679;27;20516;-86
2024/03/17 12:09:16;;;;;;;2.10;1.40;;;23.50;63.00;;;;;;5156932;27;20881;-82
2024/03/17 12:11:44;;;;;;;3.20;1.30;;;23.50;63.00;;;;;;5156370;27;20982;-82
2024/03/17 12:14:19;;;;;;;2.63;1.40;;;23.40;62.90;;;;;;5156556;27;20437;-82
2024/03/17 12:16:51;;;;;;;3.80;1.33;;;23.40;62.90;;;;;;5157024;27;20445;-86
2024/03/17 12:19:18;;;;;;;2.57;1.17;;;23.40;63.00;;;;;;5156703;27;20474;-82
2024/03/17 12:21:46;;;;;;;3.10;1.40;;;23.40;63.00;;;;;;5156405;27;20436;-85
2024/03/17 12:24:16;;;;;;;3.20;1.10;;;23.40;63.00;;;;;;5157330;27;20460;-81
2024/03/17 12:26:48;;;;;;;5.00;1.37;;;23.40;62.80;;;;;;5156539;27;20871;-87
2024/03/17 12:29:32;;;;;;;1.83;1.33;;;23.50;62.80;;;;;;5156808;27;20468;-81
2024/03/17 12:32:02;;;;;;;3.43;1.20;;;23.40;62.40;;;;;;5156929;27;20440;-81
2024/03/17 12:34:30;;;;;;;2.87;1.50;;;23.50;62.70;;;;;;5156365;27;20428;-81
2024/03/17 12:36:58;;;;;;;5.00;1.20;;;23.40;62.60;;;;;;5156799;27;20428;-81
2024/03/17 12:39:25;;;;;;;2.50;1.27;;;23.30;62.70;;;;;;5156171;27;20437;-81
2024/03/17 12:42:09;;;;;;;5.83;1.20;;;23.40;62.70;;;;;;5156535;27;20482;-83
2024/03/17 12:44:37;;;;;;;3.40;1.10;;;23.30;62.80;;;;;;5167119;27;20433;-81
2024/03/17 12:47:05;;;;;;;2.53;1.60;;;23.40;62.80;;;;;;5168198;27;20448;-81
2024/03/17 12:49:32;;;;;;;1.70;1.07;;;23.30;62.70;;;;;;5164609;27;20444;-81
2024/03/17 12:52:00;;;;;;;1.70;1.23;;;23.50;62.90;;;;;;5155917;27;20433;-87
2024/03/17 12:54:27;;;;;;;2.00;1.00;;;23.40;62.80;;;;;;5156623;27;20453;-85